createdAt,value
2022-08-30T00:01:33.562Z,18.33
2022-08-30T00:06:36.196Z,18.33
2022-08-30T00:11:37.834Z,18.37
2022-08-30T00:16:39.394Z,18.29
2022-08-30T00:21:41.120Z,18.22
2022-08-30T00:26:42.676Z,18.20
2022-08-30T00:31:44.435Z,18.36
2022-08-30T00:36:46.085Z,18.43
2022-08-30T00:41:48.611Z,18.32
2022-08-30T00:46:50.200Z,18.14
2022-08-30T00:51:53.369Z,18.07
2022-08-30T00:56:55.496Z,17.97
2022-08-30T01:01:57.099Z,17.82
2022-08-30T01:07:00.353Z,17.74
2022-08-30T01:12:02.681Z,17.75
2022-08-30T01:17:05.687Z,17.86
2022-08-30T01:22:34.666Z,17.86
2022-08-30T01:27:43.375Z,17.82
2022-08-30T01:32:47.452Z,17.72
2022-08-30T01:37:49.504Z,17.61
2022-08-30T01:42:53.523Z,17.56
2022-08-30T01:47:55.135Z,17.56
2022-08-30T01:52:56.799Z,17.64
2022-08-30T01:57:58.376Z,17.64
2022-08-30T02:02:59.980Z,17.62
2022-08-30T02:08:01.612Z,17.52
2022-08-30T02:13:03.668Z,17.41
2022-08-30T02:18:05.269Z,17.32
2022-08-30T02:23:06.855Z,17.31
2022-08-30T02:28:08.582Z,17.27
2022-08-30T02:33:10.156Z,17.24
2022-08-30T02:38:11.814Z,17.31
2022-08-30T02:43:13.407Z,17.42
2022-08-30T02:48:15.641Z,17.54
2022-08-30T02:53:18.081Z,17.60
2022-08-30T02:58:19.755Z,17.49
2022-08-30T03:03:21.710Z,17.37
2022-08-30T03:08:23.813Z,17.22
2022-08-30T03:13:25.381Z,17.14
2022-08-30T03:18:26.974Z,17.08
2022-08-30T03:23:28.586Z,16.92
2022-08-30T03:28:30.136Z,16.76
2022-08-30T03:33:31.754Z,16.66
2022-08-30T03:38:33.362Z,16.55
2022-08-30T03:43:35.135Z,16.34
2022-08-30T03:48:36.972Z,16.14
2022-08-30T03:53:38.556Z,15.95
2022-08-30T03:58:40.637Z,15.86
2022-08-30T04:03:42.236Z,15.85
2022-08-30T04:08:45.964Z,15.81
2022-08-30T04:13:49.479Z,15.84
2022-08-30T04:18:51.199Z,15.82
2022-08-30T04:23:52.765Z,15.67
2022-08-30T04:28:57.556Z,15.53
2022-08-30T04:33:59.135Z,15.45
2022-08-30T04:39:00.694Z,15.38
2022-08-30T04:44:03.533Z,15.38
2022-08-30T04:49:05.561Z,15.62
2022-08-30T04:54:08.202Z,15.83
2022-08-30T04:59:10.123Z,15.90
2022-08-30T05:04:11.723Z,16.09
2022-08-30T05:09:13.316Z,16.19
2022-08-30T05:14:14.934Z,16.29
2022-08-30T05:19:16.492Z,16.45
2022-08-30T05:24:18.445Z,16.72
2022-08-30T05:29:20.623Z,16.95
2022-08-30T05:34:22.226Z,17.10
2022-08-30T05:39:23.930Z,17.20
2022-08-30T05:44:25.975Z,17.29
2022-08-30T05:49:27.668Z,17.47
2022-08-30T05:54:29.448Z,17.75
2022-08-30T05:59:31.217Z,18.03
2022-08-30T06:04:32.811Z,18.28
2022-08-30T06:09:34.397Z,18.44
2022-08-30T06:14:36.007Z,18.57
2022-08-30T06:19:37.582Z,18.60
2022-08-30T06:24:56.526Z,18.74
2022-08-30T06:29:58.899Z,19.09
2022-08-30T06:35:00.567Z,19.33
2022-08-30T06:40:03.744Z,19.53
2022-08-30T06:45:10.733Z,19.69
2022-08-30T06:50:14.228Z,19.94
2022-08-30T06:55:17.087Z,20.23
2022-08-30T07:00:19.007Z,20.47
2022-08-30T07:05:24.170Z,20.69
2022-08-30T07:10:25.722Z,20.91
2022-08-30T07:15:27.333Z,21.24
2022-08-30T07:20:39.933Z,21.32
2022-08-30T07:25:42.363Z,21.62
2022-08-30T07:30:44.254Z,21.91
2022-08-30T07:35:45.820Z,22.26
2022-08-30T07:40:47.490Z,22.49
2022-08-30T07:45:49.135Z,22.63
2022-08-30T07:50:53.713Z,22.94
2022-08-30T07:55:59.180Z,23.25
2022-08-30T08:01:01.996Z,23.40
2022-08-30T08:06:05.681Z,23.59
2022-08-30T08:11:32.864Z,23.93
2022-08-30T08:16:38.624Z,24.24
2022-08-30T08:21:40.297Z,24.54
2022-08-30T08:26:45.366Z,24.50
2022-08-30T08:31:47.252Z,24.45
2022-08-30T08:36:49.965Z,24.32
2022-08-30T08:42:00.831Z,24.45
2022-08-30T08:47:16.252Z,24.24
2022-08-30T08:52:48.496Z,24.08
2022-08-30T08:57:52.361Z,24.26
2022-08-30T09:02:58.914Z,24.39
2022-08-30T09:08:11.399Z,24.60
2022-08-30T09:13:13.950Z,24.71
2022-08-30T09:18:19.141Z,24.93
2022-08-30T09:23:24.315Z,25.23
2022-08-30T09:28:45.109Z,25.85
2022-08-30T09:33:54.623Z,26.05
2022-08-30T09:39:29.538Z,26.38
2022-08-30T09:44:37.976Z,26.74
2022-08-30T09:49:43.552Z,26.87
2022-08-30T09:54:52.453Z,26.97
2022-08-30T10:00:02.036Z,27.12
2022-08-30T10:05:13.156Z,27.27
2022-08-30T10:10:24.876Z,27.47
2022-08-30T10:15:39.361Z,27.57
2022-08-30T10:21:04.135Z,27.54
2022-08-30T10:26:14.056Z,27.57
2022-08-30T10:32:02.355Z,27.70
2022-08-30T10:37:14.833Z,27.65
2022-08-30T10:42:25.947Z,27.74
2022-08-30T10:48:12.122Z,27.82
2022-08-30T10:53:18.786Z,27.76
2022-08-30T10:58:21.004Z,27.93
2022-08-30T11:03:31.588Z,27.86
2022-08-30T11:09:10.696Z,27.92
2022-08-30T11:14:17.554Z,27.76
2022-08-30T11:19:32.080Z,27.75
2022-08-30T11:25:00.378Z,27.77
2022-08-30T11:30:26.684Z,27.93
2022-08-30T11:35:49.796Z,28.05
2022-08-30T11:40:54.111Z,28.36
2022-08-30T11:46:14.976Z,28.12
2022-08-30T11:51:40.553Z,28.02
2022-08-30T11:56:54.450Z,27.95
2022-08-30T12:01:56.680Z,27.84
2022-08-30T12:07:04.358Z,27.83
2022-08-30T12:12:37.732Z,28.07
2022-08-30T12:18:03.997Z,28.25
2022-08-30T12:23:44.583Z,28.50
2022-08-30T12:28:49.091Z,28.53
2022-08-30T12:34:00.788Z,28.68
2022-08-30T12:39:24.833Z,28.83
2022-08-30T12:44:28.129Z,28.96
2022-08-30T12:49:33.957Z,28.93
2022-08-30T12:54:40.035Z,29.00
2022-08-30T12:59:58.106Z,29.06
2022-08-30T13:05:48.072Z,29.15
2022-08-30T13:11:30.566Z,29.19
2022-08-30T13:16:38.863Z,29.22
2022-08-30T13:21:55.373Z,29.34
2022-08-30T13:27:03.506Z,29.51
2022-08-30T13:32:05.307Z,29.33
2022-08-30T13:37:44.093Z,29.31
2022-08-30T13:42:32.743Z,29.34
2022-08-30T13:47:35.622Z,29.43
2022-08-30T13:52:39.427Z,29.41
2022-08-30T13:57:57.661Z,29.33
2022-08-30T14:03:00.048Z,29.11
2022-08-30T14:08:02.089Z,29.02
2022-08-30T14:13:08.919Z,29.05
2022-08-30T14:18:20.568Z,29.00
2022-08-30T14:23:25.847Z,28.97
2022-08-30T14:28:29.878Z,29.07
2022-08-30T14:33:32.171Z,29.14
2022-08-30T14:38:33.805Z,28.99
2022-08-30T14:43:45.191Z,29.11
2022-08-30T14:55:45.635Z,28.83
2022-08-30T15:00:52.217Z,28.84
2022-08-30T15:05:53.931Z,28.82
2022-08-30T15:10:55.879Z,28.78
2022-08-30T15:15:57.569Z,28.75
2022-08-30T15:20:59.233Z,28.71
2022-08-30T15:26:03.563Z,28.78
2022-08-30T15:31:09.058Z,28.90
2022-08-30T15:36:12.478Z,28.92
2022-08-30T15:41:15.446Z,28.96
2022-08-30T15:46:20.052Z,28.87
2022-08-30T15:51:23.089Z,28.85
2022-08-30T15:56:25.906Z,28.90
2022-08-30T16:01:30.769Z,28.86
2022-08-30T16:06:37.611Z,28.82
2022-08-30T16:11:39.486Z,28.91
2022-08-30T16:16:41.985Z,28.87
2022-08-30T16:21:44.154Z,28.65
2022-08-30T16:26:46.683Z,28.45
2022-08-30T16:31:49.182Z,28.31
2022-08-30T16:36:51.061Z,28.20
2022-08-30T16:41:53.081Z,28.07
2022-08-30T16:46:54.830Z,27.85
2022-08-30T16:51:56.822Z,27.61
2022-08-30T16:56:58.514Z,27.46
2022-08-30T17:02:00.323Z,27.29
2022-08-30T17:07:02.017Z,27.14
2022-08-30T17:12:04.597Z,27.00
2022-08-30T17:17:06.300Z,26.90
2022-08-30T17:22:09.823Z,26.76
2022-08-30T17:27:12.837Z,26.65
2022-08-30T17:32:14.557Z,26.49
2022-08-30T17:37:17.977Z,26.38
2022-08-30T17:42:20.006Z,26.27
2022-08-30T17:47:22.188Z,26.07
2022-08-30T17:52:27.026Z,25.91
2022-08-30T17:57:28.864Z,25.76
2022-08-30T18:02:31.576Z,25.52
2022-08-30T18:07:33.667Z,25.32
2022-08-30T18:12:35.382Z,25.14
2022-08-30T18:18:33.724Z,25.01
2022-08-30T18:23:35.526Z,24.92
2022-08-30T18:28:37.179Z,24.93
2022-08-30T18:33:38.729Z,24.87
2022-08-30T18:38:42.423Z,24.80
2022-08-30T18:43:44.801Z,24.79
2022-08-30T18:48:47.578Z,24.72
2022-08-30T18:53:49.476Z,24.62
2022-08-30T18:58:51.122Z,24.51
2022-08-30T19:03:52.675Z,24.38
2022-08-30T19:08:54.315Z,24.31
2022-08-30T19:13:55.851Z,24.23
2022-08-30T19:18:57.422Z,24.12
2022-08-30T19:23:59.169Z,24.06
2022-08-30T19:29:01.767Z,23.90
2022-08-30T19:34:03.995Z,23.81
2022-08-30T19:39:05.770Z,23.70
2022-08-30T19:44:07.682Z,23.62
2022-08-30T19:49:11.221Z,23.51
2022-08-30T19:54:12.799Z,23.19
2022-08-30T19:59:14.367Z,22.90
2022-08-30T20:04:16.018Z,22.53
2022-08-30T20:09:22.173Z,22.26
2022-08-30T20:14:23.890Z,22.21
2022-08-30T20:19:27.563Z,22.29
2022-08-30T20:24:31.010Z,22.58
2022-08-30T20:29:34.399Z,22.75
2022-08-30T20:34:36.310Z,22.85
2022-08-30T20:39:38.284Z,22.78
2022-08-30T20:44:40.095Z,22.67
2022-08-30T20:49:41.634Z,22.59
2022-08-30T20:54:44.893Z,22.51
2022-08-30T20:59:46.426Z,22.41
2022-08-30T21:04:48.447Z,22.21
2022-08-30T21:09:50.360Z,22.00
2022-08-30T21:14:52.442Z,21.79
2022-08-30T21:19:55.275Z,21.58
2022-08-30T21:24:56.843Z,21.36
2022-08-30T21:29:58.758Z,21.20
2022-08-30T21:35:18.869Z,21.08
2022-08-30T21:40:21.021Z,20.98
2022-08-30T21:45:22.919Z,21.02
2022-08-30T21:50:24.474Z,21.20
2022-08-30T21:55:26.160Z,21.29
2022-08-30T22:00:27.746Z,21.32
2022-08-30T22:05:29.408Z,21.43
2022-08-30T22:10:33.228Z,21.42
2022-08-30T22:15:35.082Z,21.29
2022-08-30T22:20:36.690Z,21.23
2022-08-30T22:25:38.230Z,21.20
2022-08-30T22:30:39.833Z,21.14
2022-08-30T22:35:42.515Z,21.12
2022-08-30T22:40:46.090Z,21.09
2022-08-30T22:45:47.974Z,21.14
2022-08-30T22:50:49.577Z,21.23
2022-08-30T22:55:51.143Z,20.91
2022-08-30T23:00:55.348Z,20.37
2022-08-30T23:05:57.528Z,19.75
2022-08-30T23:11:01.471Z,19.39
2022-08-30T23:16:07.614Z,19.01
2022-08-30T23:21:20.458Z,18.75
2022-08-30T23:26:42.010Z,18.58
2022-08-30T23:32:02.333Z,18.45
2022-08-30T23:37:22.661Z,18.35
2022-08-30T23:42:42.602Z,18.26
2022-08-30T23:48:03.416Z,18.16
2022-08-30T23:53:23.951Z,18.06
2022-08-30T23:58:44.138Z,17.99
